createdAt,value
2024-03-26T00:02:06.929Z,73.05
2024-03-26T00:04:36.331Z,73.13
2024-03-26T00:07:04.843Z,72.92
2024-03-26T00:09:33.597Z,72.99
2024-03-26T00:12:02.492Z,73.08
2024-03-26T00:14:31.172Z,72.93
2024-03-26T00:16:59.857Z,73.35
2024-03-26T00:19:29.054Z,73.69
2024-03-26T00:21:57.841Z,73.56
2024-03-26T00:24:26.424Z,73.43
2024-03-26T00:26:55.107Z,73.42
2024-03-26T00:29:23.691Z,73.54
2024-03-26T00:31:52.275Z,73.94
2024-03-26T00:34:20.956Z,73.93
2024-03-26T00:36:49.651Z,73.85
2024-03-26T00:39:18.331Z,73.89
2024-03-26T00:41:46.914Z,73.80
2024-03-26T00:44:15.597Z,74.04
2024-03-26T00:46:44.284Z,74.56
2024-03-26T00:49:13.069Z,74.56
2024-03-26T00:51:45.644Z,74.48
2024-03-26T00:54:16.891Z,74.69
2024-03-26T00:56:45.716Z,74.87
2024-03-26T00:59:14.464Z,75.11
2024-03-26T01:01:43.262Z,74.90
2024-03-26T01:04:11.935Z,74.87
2024-03-26T01:06:41.754Z,74.87
2024-03-26T01:09:10.232Z,74.79
2024-03-26T01:11:38.918Z,74.60
2024-03-26T01:14:07.501Z,74.74
2024-03-26T01:16:36.289Z,74.82
2024-03-26T01:19:05.091Z,74.68
2024-03-26T01:21:33.762Z,74.73
2024-03-26T01:24:02.447Z,75.05
2024-03-26T01:26:31.101Z,75.31
2024-03-26T01:28:59.836Z,75.37
2024-03-26T01:31:28.610Z,75.69
2024-03-26T01:33:57.530Z,75.78
2024-03-26T01:36:26.184Z,76.25
2024-03-26T01:38:54.802Z,75.90
2024-03-26T01:41:23.446Z,76.26
2024-03-26T01:43:52.128Z,76.20
2024-03-26T01:46:20.622Z,76.33
2024-03-26T01:48:55.580Z,76.04
2024-03-26T01:51:39.075Z,75.95
2024-03-26T01:54:07.803Z,76.16
2024-03-26T01:56:36.753Z,76.44
2024-03-26T01:59:05.785Z,76.73
2024-03-26T02:01:48.356Z,76.46
2024-03-26T02:04:17.147Z,76.31
2024-03-26T02:06:45.851Z,76.25
2024-03-26T02:09:14.614Z,76.08
2024-03-26T02:11:43.304Z,76.02
2024-03-26T02:14:12.096Z,75.75
2024-03-26T02:16:41.283Z,75.65
2024-03-26T02:19:09.977Z,75.72
2024-03-26T02:21:38.664Z,75.47
2024-03-26T02:24:07.449Z,75.37
2024-03-26T02:26:36.144Z,75.27
2024-03-26T02:29:04.751Z,75.39
2024-03-26T02:31:33.497Z,75.01
2024-03-26T02:34:02.291Z,75.47
2024-03-26T02:36:30.870Z,75.60
2024-03-26T02:38:59.658Z,75.55
2024-03-26T02:41:28.342Z,75.66
2024-03-26T02:43:57.484Z,75.64
2024-03-26T02:46:25.956Z,75.43
2024-03-26T02:48:54.499Z,75.32
2024-03-26T02:51:23.183Z,75.53
2024-03-26T02:53:51.869Z,75.68
2024-03-26T02:56:20.655Z,75.87
2024-03-26T02:58:49.238Z,76.41
2024-03-26T03:01:18.843Z,76.29
2024-03-26T03:03:47.437Z,76.50
2024-03-26T03:06:16.122Z,76.21
2024-03-26T03:08:44.813Z,76.43
2024-03-26T03:11:13.690Z,76.65
2024-03-26T03:13:42.378Z,76.63
2024-03-26T03:16:11.060Z,76.71
2024-03-26T03:18:39.752Z,76.69
2024-03-26T03:21:08.434Z,76.54
2024-03-26T03:23:37.110Z,76.77
2024-03-26T03:26:05.902Z,76.90
2024-03-26T03:28:34.591Z,76.44
2024-03-26T03:31:03.211Z,76.34
2024-03-26T03:33:31.807Z,76.56
2024-03-26T03:36:00.954Z,76.43
2024-03-26T03:38:29.538Z,76.57
2024-03-26T03:40:58.118Z,76.65
2024-03-26T03:43:26.908Z,76.76
2024-03-26T03:45:55.581Z,76.78
2024-03-26T03:48:24.580Z,77.06
2024-03-26T03:50:53.163Z,76.83
2024-03-26T03:53:21.949Z,77.10
2024-03-26T03:55:50.777Z,77.45
2024-03-26T03:58:24.912Z,77.33
2024-03-26T04:00:59.465Z,77.09
2024-03-26T04:03:28.052Z,76.89
2024-03-26T04:05:56.572Z,76.58
2024-03-26T04:08:25.028Z,76.45
2024-03-26T04:10:53.446Z,76.43
2024-03-26T04:13:22.216Z,76.69
2024-03-26T04:15:50.671Z,76.80
2024-03-26T04:18:19.263Z,76.82
2024-03-26T04:20:47.721Z,77.25
2024-03-26T04:23:16.417Z,77.65
2024-03-26T04:25:55.786Z,77.14
2024-03-26T04:28:27.446Z,77.07
2024-03-26T04:30:56.189Z,76.78
2024-03-26T04:33:25.386Z,76.99
2024-03-26T04:35:53.966Z,76.90
2024-03-26T04:38:22.960Z,77.00
2024-03-26T04:40:51.857Z,77.19
2024-03-26T04:43:20.330Z,77.06
2024-03-26T04:45:51.808Z,76.85
2024-03-26T04:48:21.997Z,77.07
2024-03-26T04:50:50.725Z,76.93
2024-03-26T04:53:19.573Z,77.55
2024-03-26T04:55:48.463Z,77.58
2024-03-26T04:58:17.266Z,77.78
2024-03-26T05:00:51.480Z,78.02
2024-03-26T05:03:20.050Z,78.14
2024-03-26T05:05:49.267Z,78.06
2024-03-26T05:08:18.032Z,78.20
2024-03-26T05:10:47.231Z,78.23
2024-03-26T05:13:15.920Z,78.33
2024-03-26T05:15:44.599Z,78.38
2024-03-26T05:18:13.190Z,78.45
2024-03-26T05:20:41.913Z,78.39
2024-03-26T05:23:10.347Z,77.98
2024-03-26T05:25:38.738Z,77.90
2024-03-26T05:28:07.206Z,77.83
2024-03-26T05:30:35.691Z,77.72
2024-03-26T05:33:04.391Z,77.57
2024-03-26T05:35:32.928Z,77.68
2024-03-26T05:38:01.606Z,77.48
2024-03-26T05:40:30.117Z,77.78
2024-03-26T05:42:58.605Z,77.44
2024-03-26T05:45:27.903Z,77.13
2024-03-26T05:47:56.486Z,77.35
2024-03-26T05:50:25.131Z,77.43
2024-03-26T05:52:53.548Z,77.17
2024-03-26T05:55:22.039Z,77.43
2024-03-26T05:57:50.442Z,77.32
2024-03-26T06:00:19.328Z,77.46
2024-03-26T06:02:48.776Z,77.64
2024-03-26T06:05:17.661Z,77.49
2024-03-26T06:07:46.403Z,77.51
2024-03-26T06:10:14.855Z,77.17
2024-03-26T06:12:43.308Z,77.08
2024-03-26T06:15:13.695Z,77.02
2024-03-26T06:17:42.723Z,76.59
2024-03-26T06:20:11.868Z,76.58
2024-03-26T06:22:40.435Z,76.82
2024-03-26T06:25:09.071Z,76.39
2024-03-26T06:27:37.612Z,75.81
2024-03-26T06:30:07.180Z,75.25
2024-03-26T06:32:35.723Z,74.94
2024-03-26T06:35:04.583Z,75.36
2024-03-26T06:37:33.575Z,75.09
2024-03-26T06:40:02.215Z,74.51
2024-03-26T06:42:30.807Z,73.94
2024-03-26T06:44:59.294Z,73.20
2024-03-26T06:47:27.917Z,71.54
2024-03-26T06:49:56.683Z,70.20
2024-03-26T06:52:25.289Z,69.08
2024-03-26T06:54:53.724Z,67.61
2024-03-26T06:57:22.338Z,66.00
2024-03-26T06:59:50.920Z,64.87
2024-03-26T07:02:19.406Z,64.06
2024-03-26T07:04:48.045Z,63.96
2024-03-26T07:07:16.633Z,62.49
2024-03-26T07:09:45.317Z,62.06
2024-03-26T07:12:13.827Z,61.10
2024-03-26T07:14:43.217Z,60.46
2024-03-26T07:17:11.689Z,61.25
2024-03-26T07:19:40.254Z,60.97
2024-03-26T07:22:09.436Z,61.20
2024-03-26T07:24:38.271Z,59.10
2024-03-26T07:27:06.801Z,58.95
2024-03-26T07:29:35.703Z,57.40
2024-03-26T07:32:05.051Z,56.32
2024-03-26T07:34:37.376Z,57.33
2024-03-26T07:37:06.512Z,55.67
2024-03-26T07:39:36.641Z,54.91
2024-03-26T07:42:05.339Z,55.11
2024-03-26T07:44:34.210Z,54.04
2024-03-26T07:47:03.716Z,53.35
2024-03-26T07:49:32.298Z,53.97
2024-03-26T07:52:00.878Z,53.83
2024-03-26T07:54:32.016Z,52.11
2024-03-26T07:57:00.821Z,52.39
2024-03-26T07:59:30.052Z,51.27
2024-03-26T08:01:58.689Z,50.51
2024-03-26T08:04:27.578Z,51.08
2024-03-26T08:06:56.267Z,50.08
2024-03-26T08:09:25.049Z,48.59
2024-03-26T08:11:53.701Z,48.94
2024-03-26T08:14:22.767Z,49.50
2024-03-26T08:16:54.332Z,47.96
2024-03-26T08:19:23.067Z,47.68
2024-03-26T08:21:51.750Z,47.74
2024-03-26T08:24:20.383Z,48.34
2024-03-26T08:26:49.132Z,47.34
2024-03-26T08:29:17.810Z,46.57
2024-03-26T08:31:46.404Z,46.96
2024-03-26T08:34:16.519Z,46.71
2024-03-26T08:36:46.116Z,46.09
2024-03-26T08:39:15.215Z,47.01
2024-03-26T08:41:43.900Z,45.43
2024-03-26T08:44:12.579Z,45.15
2024-03-26T08:46:41.263Z,45.46
2024-03-26T08:49:10.053Z,47.00
2024-03-26T08:51:38.868Z,46.81
2024-03-26T08:54:08.855Z,45.15
2024-03-26T08:56:37.381Z,45.43
2024-03-26T08:59:06.537Z,45.60
2024-03-26T09:01:35.131Z,45.41
2024-03-26T09:04:04.110Z,45.92
2024-03-26T09:06:32.619Z,45.52
2024-03-26T09:09:01.310Z,44.99
2024-03-26T09:11:29.857Z,44.24
2024-03-26T09:13:58.690Z,45.12
2024-03-26T09:16:28.566Z,46.14
2024-03-26T09:19:01.069Z,45.35
2024-03-26T09:21:30.369Z,45.74
2024-03-26T09:23:58.825Z,44.66
2024-03-26T09:26:27.296Z,44.39
2024-03-26T09:28:55.675Z,45.24
2024-03-26T09:31:24.263Z,45.55
2024-03-26T09:33:53.223Z,45.31
2024-03-26T09:36:22.140Z,45.47
2024-03-26T09:38:52.384Z,44.82
2024-03-26T09:41:28.720Z,44.81
2024-03-26T09:43:57.922Z,43.30
2024-03-26T09:46:27.329Z,43.08
2024-03-26T09:48:58.871Z,44.15
2024-03-26T09:51:28.071Z,44.12
2024-03-26T09:53:58.910Z,44.40
2024-03-26T09:56:28.111Z,44.39
2024-03-26T09:58:56.685Z,44.54
2024-03-26T10:01:26.804Z,44.47
2024-03-26T10:03:55.796Z,43.78
2024-03-26T10:06:25.197Z,42.89
2024-03-26T10:08:54.188Z,40.47
2024-03-26T10:11:22.768Z,40.22
2024-03-26T10:13:52.173Z,40.36
2024-03-26T10:16:20.956Z,41.99
2024-03-26T10:18:49.651Z,40.93
2024-03-26T10:21:18.329Z,40.02
2024-03-26T10:23:47.013Z,39.87
2024-03-26T10:26:16.414Z,39.81
2024-03-26T10:28:50.130Z,40.35
2024-03-26T10:31:20.146Z,40.16
2024-03-26T10:33:48.667Z,38.93
2024-03-26T10:36:18.061Z,39.10
2024-03-26T10:38:57.093Z,39.34
2024-03-26T10:41:34.851Z,38.98
2024-03-26T10:44:04.565Z,39.36
2024-03-26T10:46:34.173Z,40.31
2024-03-26T10:49:04.179Z,40.06
2024-03-26T10:51:33.887Z,40.65
2024-03-26T10:54:03.257Z,41.49
2024-03-26T10:56:33.582Z,41.78
2024-03-26T10:59:03.127Z,41.72
2024-03-26T11:01:32.215Z,41.36
2024-03-26T11:04:01.409Z,40.93
2024-03-26T11:06:30.397Z,40.54
2024-03-26T11:09:02.450Z,40.71
2024-03-26T11:11:36.079Z,40.64
2024-03-26T11:14:05.464Z,40.61
2024-03-26T11:16:41.948Z,41.12
2024-03-26T11:19:22.120Z,41.31
2024-03-26T11:21:52.031Z,41.68
2024-03-26T11:24:26.062Z,42.00
2024-03-26T11:26:57.056Z,42.19
2024-03-26T11:29:26.877Z,43.15
2024-03-26T11:31:57.039Z,42.95
2024-03-26T11:34:26.755Z,42.75
2024-03-26T11:36:56.660Z,42.79
2024-03-26T11:39:26.589Z,42.79
2024-03-26T11:41:55.713Z,42.86
2024-03-26T11:44:24.555Z,41.98
2024-03-26T11:46:53.289Z,41.75
2024-03-26T11:49:23.818Z,42.00
2024-03-26T11:51:52.404Z,40.89
2024-03-26T11:54:21.453Z,41.02
2024-03-26T11:56:50.313Z,41.22
2024-03-26T11:59:21.227Z,41.97
2024-03-26T12:01:49.917Z,40.44
2024-03-26T12:04:18.724Z,40.16
2024-03-26T12:06:47.384Z,39.87
2024-03-26T12:09:17.392Z,39.79
2024-03-26T12:11:46.520Z,40.02
2024-03-26T12:14:15.016Z,39.91
2024-03-26T12:16:43.758Z,39.88
2024-03-26T12:19:12.465Z,39.76
2024-03-26T12:21:41.245Z,39.54
2024-03-26T12:24:13.397Z,39.67
2024-03-26T12:26:42.804Z,39.50
2024-03-26T12:29:12.415Z,39.83
2024-03-26T12:31:41.092Z,39.81
2024-03-26T12:34:10.802Z,39.71
2024-03-26T12:36:39.491Z,39.55
2024-03-26T12:39:12.675Z,38.84
2024-03-26T12:41:41.373Z,38.75
2024-03-26T12:44:14.774Z,38.68
2024-03-26T12:46:43.320Z,38.08
2024-03-26T12:49:12.038Z,38.93
2024-03-26T12:51:41.728Z,39.50
2024-03-26T12:54:10.333Z,38.81
2024-03-26T12:56:39.424Z,38.68
2024-03-26T12:59:08.406Z,38.15
2024-03-26T13:01:36.928Z,38.35
2024-03-26T13:04:05.774Z,38.71
2024-03-26T13:06:34.458Z,39.03
2024-03-26T13:09:03.154Z,39.30
2024-03-26T13:11:33.853Z,38.31
2024-03-26T13:14:03.389Z,38.54
2024-03-26T13:16:33.500Z,38.63
2024-03-26T13:19:01.924Z,38.19
2024-03-26T13:21:30.868Z,38.88
2024-03-26T13:23:59.556Z,38.78
2024-03-26T13:26:28.246Z,38.42
2024-03-26T13:28:57.131Z,37.37
2024-03-26T13:31:26.329Z,37.85
2024-03-26T13:33:54.948Z,37.95
2024-03-26T13:36:24.463Z,37.15
2024-03-26T13:38:53.021Z,37.60
2024-03-26T13:41:21.787Z,37.69
2024-03-26T13:43:55.296Z,37.91
2024-03-26T13:46:24.284Z,37.64
2024-03-26T13:48:53.715Z,37.70
2024-03-26T13:51:22.563Z,37.59
2024-03-26T13:53:51.264Z,36.72
2024-03-26T13:56:20.138Z,35.98
2024-03-26T13:58:48.931Z,36.45
2024-03-26T14:01:17.615Z,36.73
2024-03-26T14:03:47.134Z,36.75
2024-03-26T14:06:15.802Z,37.49
2024-03-26T14:08:44.481Z,37.03
2024-03-26T14:11:13.067Z,35.29
2024-03-26T14:13:41.698Z,34.80
2024-03-26T14:16:10.178Z,34.46
2024-03-26T14:18:38.846Z,34.25
2024-03-26T14:21:07.776Z,33.20
2024-03-26T14:23:36.392Z,33.19
2024-03-26T14:26:06.018Z,33.98
2024-03-26T14:28:35.005Z,36.10
2024-03-26T14:31:03.742Z,36.22
2024-03-26T14:33:32.241Z,33.57
2024-03-26T14:36:00.736Z,32.83
2024-03-26T14:38:29.319Z,32.97
2024-03-26T14:40:57.902Z,32.90
2024-03-26T14:43:26.702Z,33.07
2024-03-26T14:45:55.381Z,33.15
2024-03-26T14:48:24.207Z,33.53
2024-03-26T14:50:53.616Z,33.23
2024-03-26T14:53:22.812Z,32.16
2024-03-26T14:55:51.338Z,32.09
2024-03-26T14:58:19.886Z,32.53
2024-03-26T15:00:49.639Z,32.37
2024-03-26T15:03:19.463Z,32.23
2024-03-26T15:05:51.872Z,32.86
2024-03-26T15:08:21.635Z,32.94
2024-03-26T15:10:50.663Z,32.88
2024-03-26T15:13:19.135Z,32.74
2024-03-26T15:15:48.021Z,32.63
2024-03-26T15:18:17.272Z,33.08
2024-03-26T15:20:45.843Z,33.04
2024-03-26T15:23:14.460Z,32.70
2024-03-26T15:25:43.149Z,32.83
2024-03-26T15:28:34.874Z,32.91
2024-03-26T15:31:22.371Z,33.12
2024-03-26T15:33:50.823Z,32.75
2024-03-26T15:36:19.269Z,32.74
2024-03-26T15:38:47.856Z,32.76
2024-03-26T15:41:16.363Z,33.15
2024-03-26T15:43:44.851Z,33.06
2024-03-26T15:46:13.316Z,33.14
2024-03-26T15:48:41.687Z,33.07
2024-03-26T15:51:11.645Z,33.00
2024-03-26T15:53:40.312Z,32.86
2024-03-26T15:56:09.086Z,32.79
2024-03-26T15:58:38.895Z,32.93
2024-03-26T16:01:09.336Z,33.03
2024-03-26T16:03:38.063Z,33.05
2024-03-26T16:06:07.486Z,33.42
2024-03-26T16:08:36.565Z,33.67
2024-03-26T16:11:13.075Z,33.77
2024-03-26T16:13:42.611Z,33.94
2024-03-26T16:16:11.330Z,33.89
2024-03-26T16:18:40.324Z,34.13
2024-03-26T16:21:09.525Z,34.24
2024-03-26T16:23:38.084Z,34.26
2024-03-26T16:26:06.520Z,34.90
2024-03-26T16:28:38.295Z,35.69
2024-03-26T16:31:08.789Z,36.85
2024-03-26T16:33:37.302Z,37.58
2024-03-26T16:36:11.156Z,38.00
2024-03-26T16:38:42.641Z,38.68
2024-03-26T16:41:20.340Z,39.33
2024-03-26T16:43:59.480Z,39.69
2024-03-26T16:46:29.848Z,39.88
2024-03-26T16:48:58.953Z,40.33
2024-03-26T16:51:27.867Z,40.61
2024-03-26T16:53:56.386Z,41.03
2024-03-26T16:56:26.021Z,41.19
2024-03-26T16:58:54.538Z,41.39
2024-03-26T17:01:23.231Z,41.47
2024-03-26T17:03:51.715Z,41.66
2024-03-26T17:06:20.312Z,41.86
2024-03-26T17:08:49.638Z,41.87
2024-03-26T17:11:18.929Z,42.12
2024-03-26T17:13:48.666Z,42.26
2024-03-26T17:16:17.456Z,42.30
2024-03-26T17:18:46.010Z,42.64
2024-03-26T17:21:14.596Z,42.98
2024-03-26T17:23:43.124Z,43.01
2024-03-26T17:26:11.701Z,42.89
2024-03-26T17:28:40.356Z,43.03
2024-03-26T17:31:09.760Z,43.26
2024-03-26T17:33:38.324Z,43.10
2024-03-26T17:36:07.070Z,43.30
2024-03-26T17:38:35.631Z,43.09
2024-03-26T17:41:04.314Z,43.52
2024-03-26T17:43:32.777Z,43.54
2024-03-26T17:46:01.306Z,43.61
2024-03-26T17:48:31.024Z,43.75
2024-03-26T17:50:59.550Z,43.30
2024-03-26T17:53:30.403Z,43.43
2024-03-26T17:55:58.952Z,43.63
2024-03-26T17:58:30.167Z,43.62
2024-03-26T18:01:07.254Z,43.51
2024-03-26T18:03:36.593Z,43.48
2024-03-26T18:06:05.609Z,43.50
2024-03-26T18:08:34.377Z,43.42
2024-03-26T18:11:06.951Z,43.41
2024-03-26T18:13:35.776Z,43.56
2024-03-26T18:16:05.159Z,43.65
2024-03-26T18:18:33.759Z,43.85
2024-03-26T18:21:07.437Z,43.75
2024-03-26T18:23:36.074Z,43.78
2024-03-26T18:26:06.826Z,43.56
2024-03-26T18:28:36.467Z,43.93
2024-03-26T18:31:09.047Z,43.80
2024-03-26T18:33:38.486Z,43.83
2024-03-26T18:36:07.120Z,44.11
2024-03-26T18:38:35.762Z,44.08
2024-03-26T18:41:09.349Z,44.19
2024-03-26T18:43:39.520Z,44.00
2024-03-26T18:46:14.405Z,43.93
2024-03-26T18:48:44.383Z,44.17
2024-03-26T18:51:13.669Z,44.43
2024-03-26T18:53:42.454Z,43.88
2024-03-26T18:56:12.889Z,43.83
2024-03-26T18:58:42.208Z,44.14
2024-03-26T19:01:18.389Z,44.07
2024-03-26T19:03:48.256Z,44.20
2024-03-26T19:06:18.101Z,44.21
2024-03-26T19:08:47.162Z,44.21
2024-03-26T19:11:15.799Z,44.58
2024-03-26T19:13:44.787Z,44.25
2024-03-26T19:16:13.930Z,44.60
2024-03-26T19:18:42.614Z,44.56
2024-03-26T19:21:11.163Z,44.52
2024-03-26T19:23:39.696Z,44.44
2024-03-26T19:26:09.662Z,44.73
2024-03-26T19:28:39.038Z,44.51
2024-03-26T19:31:11.209Z,44.80
2024-03-26T19:33:41.186Z,44.76
2024-03-26T19:36:11.193Z,44.90
2024-03-26T19:38:39.774Z,44.95
2024-03-26T19:41:09.394Z,45.14
2024-03-26T19:43:38.058Z,44.99
2024-03-26T19:46:11.011Z,44.97
2024-03-26T19:48:40.264Z,45.18
2024-03-26T19:51:09.651Z,45.16
2024-03-26T19:53:39.585Z,45.40
2024-03-26T19:56:12.446Z,45.40
2024-03-26T19:58:43.438Z,45.52
2024-03-26T20:01:12.286Z,45.69
2024-03-26T20:03:40.902Z,45.79
2024-03-26T20:06:13.277Z,46.01
2024-03-26T20:08:45.102Z,45.99
2024-03-26T20:11:14.760Z,46.12
2024-03-26T20:13:43.384Z,45.97
2024-03-26T20:16:14.931Z,46.10
2024-03-26T20:18:44.315Z,46.13
2024-03-26T20:21:12.808Z,46.50
2024-03-26T20:23:41.983Z,46.32
2024-03-26T20:26:10.490Z,46.44
2024-03-26T20:28:38.981Z,46.58
2024-03-26T20:31:12.444Z,46.71
2024-03-26T20:33:42.690Z,46.82
2024-03-26T20:36:16.933Z,46.72
2024-03-26T20:38:45.424Z,46.88
2024-03-26T20:41:14.465Z,46.90
2024-03-26T20:43:43.062Z,46.91
2024-03-26T20:46:11.750Z,46.85
2024-03-26T20:48:40.433Z,46.90
2024-03-26T20:51:12.842Z,47.00
2024-03-26T20:53:41.328Z,46.99
2024-03-26T20:56:10.078Z,47.10
2024-03-26T20:58:38.722Z,47.19
2024-03-26T21:01:14.622Z,47.40
2024-03-26T21:03:43.628Z,47.63
2024-03-26T21:06:12.917Z,47.61
2024-03-26T21:08:41.696Z,47.93
2024-03-26T21:11:11.965Z,47.87
2024-03-26T21:13:41.165Z,47.95
2024-03-26T21:16:12.354Z,48.26
2024-03-26T21:18:48.988Z,48.32
2024-03-26T21:21:21.408Z,48.36
2024-03-26T21:23:51.827Z,48.47
2024-03-26T21:26:20.508Z,48.64
2024-03-26T21:28:49.088Z,48.82
2024-03-26T21:31:18.188Z,48.99
2024-03-26T21:33:48.446Z,49.01
2024-03-26T21:36:16.943Z,49.09
2024-03-26T21:38:45.570Z,49.17
2024-03-26T21:41:16.001Z,49.26
2024-03-26T21:43:44.684Z,49.43
2024-03-26T21:46:13.368Z,49.58
2024-03-26T21:48:42.461Z,49.79
2024-03-26T21:51:10.939Z,49.75
2024-03-26T21:53:41.468Z,49.91
2024-03-26T21:56:11.690Z,49.70
2024-03-26T21:58:41.004Z,49.71
2024-03-26T22:01:14.549Z,49.80
2024-03-26T22:03:43.667Z,49.87
2024-03-26T22:06:12.905Z,49.89
2024-03-26T22:08:42.245Z,50.05
2024-03-26T22:11:13.679Z,50.27
2024-03-26T22:13:42.331Z,50.51
2024-03-26T22:16:11.104Z,50.36
2024-03-26T22:18:39.910Z,50.57
2024-03-26T22:21:08.500Z,50.69
2024-03-26T22:23:37.055Z,50.67
2024-03-26T22:26:08.875Z,50.96
2024-03-26T22:28:37.402Z,50.84
2024-03-26T22:31:06.843Z,50.95
2024-03-26T22:33:36.855Z,50.99
2024-03-26T22:36:09.544Z,51.06
2024-03-26T22:38:38.370Z,51.09
2024-03-26T22:41:07.222Z,51.21
2024-03-26T22:43:38.838Z,51.18
2024-03-26T22:46:08.680Z,51.27
2024-03-26T22:48:41.558Z,51.40
2024-03-26T22:51:10.451Z,51.46
2024-03-26T22:53:39.107Z,51.30
2024-03-26T22:56:07.892Z,51.04
2024-03-26T22:58:36.578Z,51.06
2024-03-26T23:01:08.232Z,51.04
2024-03-26T23:03:36.986Z,51.31
2024-03-26T23:06:05.715Z,51.19
2024-03-26T23:08:34.103Z,51.45
2024-03-26T23:11:03.473Z,51.47
2024-03-26T23:13:31.795Z,51.17
2024-03-26T23:16:03.237Z,50.99
2024-03-26T23:18:32.707Z,50.93
2024-03-26T23:21:01.169Z,51.05
2024-03-26T23:23:29.688Z,51.12
2024-03-26T23:25:58.390Z,51.02
2024-03-26T23:28:27.039Z,51.18
2024-03-26T23:30:55.620Z,50.93
2024-03-26T23:33:24.460Z,51.00
2024-03-26T23:35:53.118Z,51.08
2024-03-26T23:38:21.717Z,51.15
2024-03-26T23:40:50.426Z,51.28
2024-03-26T23:43:19.048Z,51.55
2024-03-26T23:45:47.685Z,51.41
2024-03-26T23:48:16.208Z,51.60
2024-03-26T23:50:44.997Z,51.39
2024-03-26T23:53:13.683Z,51.73
2024-03-26T23:55:45.135Z,51.86
2024-03-26T23:58:13.655Z,51.59
